Time;durP1;ratioP1;P1;durP2;ratioP2;P2;SDS_P1;SDS_P2;PMS_P1;PMS_P2;Temp;Humidity;BMP_temperature;BMP_pressure;BME280_temperature;BME280_humidity;BME280_pressure;Samples;Min_cycle;Max_cycle;Signal;HPM_P1;HPM_P2
2023/09/08 00:00:57;;;;;;;9.15;6.57;;;23.40;60.00;;;;;;5070034;28;20024;-51
2023/09/08 00:03:23;;;;;;;11.13;6.68;;;23.40;59.90;;;;;;5071544;28;20025;-46
2023/09/08 00:05:49;;;;;;;13.02;6.90;;;23.40;60.10;;;;;;5066403;28;20028;-46
2023/09/08 00:08:15;;;;;;;11.07;6.35;;;23.40;60.10;;;;;;5070554;28;20368;-45
2023/09/08 00:10:41;;;;;;;10.18;6.63;;;23.40;60.10;;;;;;5071323;28;20021;-50
2023/09/08 00:13:07;;;;;;;11.15;6.32;;;23.40;60.20;;;;;;5074130;28;20036;-50
2023/09/08 00:15:34;;;;;;;14.95;7.53;;;23.40;60.40;;;;;;5070300;28;20063;-51
2023/09/08 00:18:00;;;;;;;9.05;6.53;;;23.40;60.00;;;;;;5058432;28;20511;-45
2023/09/08 00:20:26;;;;;;;9.60;6.68;;;23.30;60.10;;;;;;5069440;28;20025;-51
2023/09/08 00:22:52;;;;;;;10.82;6.68;;;23.30;60.90;;;;;;5069665;28;20020;-53
2023/09/08 00:25:18;;;;;;;10.20;6.43;;;23.40;60.00;;;;;;5070698;28;20028;-45
2023/09/08 00:27:44;;;;;;;12.52;6.60;;;23.30;60.10;;;;;;5060737;28;20033;-48
2023/09/08 00:30:10;;;;;;;15.77;7.18;;;23.30;60.60;;;;;;5069198;28;20030;-49
2023/09/08 00:32:36;;;;;;;11.93;6.70;;;23.30;60.40;;;;;;5070712;28;20158;-49
2023/09/08 00:35:02;;;;;;;13.10;6.95;;;23.30;60.50;;;;;;5052812;28;20107;-49
2023/09/08 00:37:28;;;;;;;14.02;7.25;;;23.30;60.50;;;;;;5070179;28;20111;-48
2023/09/08 00:39:54;;;;;;;12.85;7.10;;;23.30;60.90;;;;;;5081777;28;20500;-45
2023/09/08 00:42:20;;;;;;;19.88;7.05;;;23.30;60.90;;;;;;5077389;28;20048;-46
2023/09/08 00:44:45;;;;;;;12.13;6.07;;;23.30;60.90;;;;;;5070910;28;20403;-45
2023/09/08 00:47:11;;;;;;;14.70;6.97;;;23.30;60.80;;;;;;5053355;28;20505;-46
2023/09/08 00:49:37;;;;;;;12.80;6.93;;;23.30;61.00;;;;;;5058067;28;20024;-45
2023/09/08 00:52:04;;;;;;;9.68;6.78;;;23.30;61.00;;;;;;5069114;28;20031;-48
2023/09/08 00:54:30;;;;;;;12.07;6.40;;;23.30;61.00;;;;;;5070390;28;20104;-47
2023/09/08 00:57:00;;;;;;;11.52;6.57;;;23.30;61.20;;;;;;5070478;28;20024;-50
2023/09/08 00:59:25;;;;;;;11.60;6.65;;;23.30;61.00;;;;;;5070047;28;20037;-45
2023/09/08 01:01:53;;;;;;;13.23;6.53;;;23.30;61.00;;;;;;5073650;28;20031;-46
2023/09/08 01:04:20;;;;;;;11.55;7.07;;;23.30;60.20;;;;;;5074282;28;20042;-45
2023/09/08 01:06:46;;;;;;;10.52;6.82;;;23.30;60.10;;;;;;5056245;28;20024;-44
2023/09/08 01:09:13;;;;;;;12.98;7.18;;;23.30;61.60;;;;;;5074621;28;20038;-45
2023/09/08 01:11:39;;;;;;;14.00;7.30;;;23.30;61.00;;;;;;5077725;28;20036;-46
2023/09/08 01:14:05;;;;;;;11.23;6.85;;;23.30;61.20;;;;;;5073424;28;20561;-45
2023/09/08 01:16:31;;;;;;;11.05;7.28;;;23.30;61.00;;;;;;5074251;28;20033;-47
2023/09/08 01:18:58;;;;;;;12.75;7.25;;;23.30;61.00;;;;;;5070969;28;20024;-45
2023/09/08 01:21:41;;;;;;;15.07;6.38;;;23.30;61.00;;;;;;5073091;28;20033;-47
2023/09/08 01:24:25;;;;;;;12.95;7.00;;;23.30;61.00;;;;;;5050743;28;20393;-46
2023/09/08 01:26:51;;;;;;;13.10;7.07;;;23.30;60.50;;;;;;5081527;28;20025;-47
2023/09/08 01:29:17;;;;;;;12.98;7.50;;;23.20;60.80;;;;;;5073744;28;20558;-46
2023/09/08 01:31:43;;;;;;;10.77;6.97;;;23.30;60.70;;;;;;5073449;28;20059;-48
2023/09/08 01:34:09;;;;;;;11.55;7.72;;;23.20;61.40;;;;;;5072864;28;20032;-45
2023/09/08 01:36:37;;;;;;;16.45;7.60;;;23.20;60.70;;;;;;5055801;28;20111;-46
2023/09/08 01:39:03;;;;;;;18.40;6.90;;;23.20;60.50;;;;;;5056039;28;20100;-45
2023/09/08 01:41:31;;;;;;;10.80;6.53;;;23.20;60.70;;;;;;5074162;28;20032;-45
2023/09/08 01:43:57;;;;;;;13.88;7.80;;;23.20;60.80;;;;;;5080754;28;20488;-46
2023/09/08 01:46:23;;;;;;;14.10;7.15;;;23.20;60.80;;;;;;5055816;28;20029;-50
2023/09/08 01:48:49;;;;;;;10.45;6.40;;;23.20;60.90;;;;;;5054387;28;20032;-46
2023/09/08 01:51:15;;;;;;;11.35;6.85;;;23.10;61.00;;;;;;5072128;28;20052;-45
2023/09/08 01:53:40;;;;;;;13.18;7.88;;;23.20;61.00;;;;;;5060170;28;20055;-47
2023/09/08 01:56:07;;;;;;;13.48;7.30;;;23.20;60.80;;;;;;5073335;28;20032;-48
2023/09/08 01:58:34;;;;;;;14.18;7.25;;;23.10;60.90;;;;;;5048003;28;20067;-49
2023/09/08 02:01:05;;;;;;;14.73;6.95;;;23.10;60.70;;;;;;5055132;28;20052;-45
2023/09/08 02:03:32;;;;;;;13.13;7.05;;;23.10;60.70;;;;;;5073325;28;20414;-45
2023/09/08 02:05:59;;;;;;;12.40;7.30;;;23.10;60.70;;;;;;5047433;28;20108;-50
2023/09/08 02:08:25;;;;;;;10.13;6.97;;;23.10;60.70;;;;;;5054928;28;20104;-48
2023/09/08 02:10:51;;;;;;;13.18;7.30;;;23.10;60.60;;;;;;5072965;28;20024;-45
2023/09/08 02:13:17;;;;;;;13.98;7.30;;;23.10;60.60;;;;;;5074114;28;20060;-46
2023/09/08 02:15:43;;;;;;;12.40;6.90;;;23.10;60.70;;;;;;5072610;28;20419;-47
2023/09/08 02:18:09;;;;;;;17.80;9.02;;;23.10;60.70;;;;;;5050123;28;20488;-48
2023/09/08 02:20:35;;;;;;;16.15;8.38;;;23.00;60.70;;;;;;5046407;28;20040;-48
2023/09/08 02:23:06;;;;;;;22.30;10.52;;;23.00;60.60;;;;;;5067713;28;20025;-45
2023/09/08 02:25:33;;;;;;;17.75;10.35;;;23.00;60.60;;;;;;5054813;28;20033;-46
2023/09/08 02:27:59;;;;;;;14.35;9.50;;;23.00;60.50;;;;;;5055027;28;20028;-47
2023/09/08 02:30:25;;;;;;;13.35;8.57;;;23.00;60.50;;;;;;5071463;28;20028;-50
2023/09/08 02:32:51;;;;;;;15.20;8.25;;;23.00;60.40;;;;;;5054653;28;20053;-46
2023/09/08 02:35:17;;;;;;;15.32;8.68;;;23.00;60.50;;;;;;5072719;28;20044;-48
2023/09/08 02:37:43;;;;;;;11.70;7.68;;;23.00;60.60;;;;;;5054571;28;20487;-51
2023/09/08 02:40:09;;;;;;;18.48;8.25;;;23.00;60.50;;;;;;5072337;28;20062;-47
2023/09/08 02:42:36;;;;;;;11.93;7.32;;;23.00;60.60;;;;;;5073052;28;20031;-48
2023/09/08 02:45:02;;;;;;;12.93;7.63;;;23.00;60.40;;;;;;5056030;28;20032;-45
2023/09/08 02:47:28;;;;;;;12.20;7.53;;;23.00;60.60;;;;;;5073206;28;20062;-47
2023/09/08 02:49:55;;;;;;;14.93;7.75;;;23.00;60.60;;;;;;5054278;28;20111;-46
2023/09/08 02:52:20;;;;;;;12.23;7.68;;;22.90;60.60;;;;;;5065768;28;20121;-46
2023/09/08 02:54:46;;;;;;;10.63;7.15;;;22.90;60.50;;;;;;5038212;28;20029;-46
2023/09/08 02:57:12;;;;;;;9.73;7.03;;;23.00;60.50;;;;;;5054654;28;20024;-48
2023/09/08 02:59:38;;;;;;;14.90;7.97;;;22.90;60.50;;;;;;5054177;28;20079;-45
2023/09/08 03:02:04;;;;;;;11.63;7.60;;;22.90;60.60;;;;;;5053349;28;20056;-46
2023/09/08 03:04:30;;;;;;;12.82;7.45;;;22.90;60.50;;;;;;5072109;28;20103;-47
2023/09/08 03:06:57;;;;;;;11.90;7.38;;;23.00;60.60;;;;;;5051005;28;20510;-45
2023/09/08 03:09:23;;;;;;;13.85;7.53;;;22.90;60.50;;;;;;5061139;28;20029;-47
2023/09/08 03:11:49;;;;;;;11.68;7.00;;;22.90;60.60;;;;;;5054525;28;20495;-47
2023/09/08 03:14:14;;;;;;;13.70;7.60;;;22.90;60.40;;;;;;5074492;28;20475;-51
2023/09/08 03:16:40;;;;;;;13.07;7.47;;;22.90;60.50;;;;;;5070193;28;20031;-46
2023/09/08 03:19:06;;;;;;;12.65;7.82;;;22.90;60.60;;;;;;5052137;28;20033;-48
2023/09/08 03:21:32;;;;;;;10.57;6.88;;;22.90;60.60;;;;;;5047082;28;20105;-48
2023/09/08 03:23:58;;;;;;;11.10;7.22;;;22.90;60.60;;;;;;5070619;28;20146;-46
2023/09/08 03:26:23;;;;;;;12.02;7.45;;;22.90;60.60;;;;;;5070236;28;20059;-46
2023/09/08 03:28:49;;;;;;;15.77;7.32;;;22.90;60.50;;;;;;5053477;28;20047;-47
2023/09/08 03:31:15;;;;;;;18.30;7.50;;;22.90;60.50;;;;;;5053269;28;20032;-50
2023/09/08 03:33:42;;;;;;;12.90;7.68;;;22.80;60.50;;;;;;5071279;28;20090;-47
2023/09/08 03:36:08;;;;;;;15.00;7.85;;;22.90;60.60;;;;;;5053808;28;20035;-47
2023/09/08 03:38:36;;;;;;;15.90;7.38;;;22.80;60.60;;;;;;5044309;28;20111;-47
2023/09/08 03:41:03;;;;;;;14.15;8.05;;;22.90;60.70;;;;;;5051036;28;20025;-47
2023/09/08 03:43:28;;;;;;;15.98;7.80;;;22.80;60.80;;;;;;5073096;28;20051;-48
2023/09/08 03:45:56;;;;;;;13.13;8.10;;;22.80;60.70;;;;;;5053438;28;20111;-45
2023/09/08 03:48:22;;;;;;;12.93;7.32;;;22.80;60.70;;;;;;5064634;28;20032;-45
2023/09/08 03:50:48;;;;;;;12.45;7.22;;;22.80;60.70;;;;;;5064692;28;20475;-47
2023/09/08 03:53:14;;;;;;;13.32;7.53;;;22.80;60.60;;;;;;5047726;28;20037;-45
2023/09/08 03:55:40;;;;;;;13.30;8.27;;;22.80;60.70;;;;;;5064497;28;20494;-45
2023/09/08 03:58:06;;;;;;;13.98;8.02;;;22.80;60.60;;;;;;5070035;28;20111;-48
2023/09/08 04:00:32;;;;;;;14.38;8.35;;;22.80;60.70;;;;;;5052911;28;20028;-48
2023/09/08 04:02:57;;;;;;;16.20;7.68;;;22.70;60.60;;;;;;5053233;28;20033;-47
2023/09/08 04:05:23;;;;;;;14.13;7.55;;;22.70;60.60;;;;;;5053330;28;20479;-48
2023/09/08 04:07:49;;;;;;;11.88;7.85;;;22.70;60.70;;;;;;5042930;28;20036;-45
2023/09/08 04:10:17;;;;;;;12.30;7.35;;;22.70;60.70;;;;;;5051548;28;20035;-45
2023/09/08 04:12:44;;;;;;;14.52;8.63;;;22.70;60.70;;;;;;5053475;28;20028;-48
2023/09/08 04:15:10;;;;;;;14.27;8.45;;;22.70;60.70;;;;;;5053597;28;20029;-53
2023/09/08 04:17:36;;;;;;;17.98;9.55;;;22.70;60.80;;;;;;5053306;28;20036;-47
2023/09/08 04:20:07;;;;;;;14.15;8.85;;;22.70;60.80;;;;;;5053201;28;20028;-49
2023/09/08 04:22:33;;;;;;;14.82;9.20;;;22.70;60.80;;;;;;5053562;28;20028;-51
2023/09/08 04:25:01;;;;;;;18.73;9.77;;;22.70;60.80;;;;;;5053596;28;20393;-45
2023/09/08 04:27:29;;;;;;;18.45;10.80;;;22.70;60.80;;;;;;5053726;28;20025;-45
2023/09/08 04:29:55;;;;;;;18.45;9.90;;;22.70;60.70;;;;;;5071074;28;20029;-47
2023/09/08 04:32:21;;;;;;;18.85;10.10;;;22.60;60.80;;;;;;5071246;28;20078;-50
2023/09/08 04:34:48;;;;;;;15.00;9.60;;;22.60;60.80;;;;;;5070933;28;20075;-51
2023/09/08 04:37:14;;;;;;;15.95;9.73;;;22.60;60.80;;;;;;5055417;28;20063;-45
2023/09/08 04:39:40;;;;;;;15.43;9.15;;;22.60;60.80;;;;;;5066987;28;20053;-46
2023/09/08 04:42:06;;;;;;;17.15;9.30;;;22.60;60.80;;;;;;5053303;28;20070;-47
2023/09/08 04:44:33;;;;;;;15.60;8.95;;;22.60;60.90;;;;;;5054038;28;20048;-49
2023/09/08 04:46:59;;;;;;;14.80;9.18;;;22.60;60.90;;;;;;5069309;28;20103;-45
2023/09/08 04:49:25;;;;;;;17.00;10.45;;;22.60;61.00;;;;;;5049712;28;20124;-48
2023/09/08 04:51:53;;;;;;;16.67;11.45;;;22.60;61.00;;;;;;5050428;28;20044;-47
2023/09/08 04:54:19;;;;;;;15.18;10.63;;;22.60;61.10;;;;;;5091292;23;20082;-50
2023/09/08 04:56:47;;;;;;;18.23;10.02;;;22.60;61.10;;;;;;5064345;28;20029;-54
2023/09/08 04:59:13;;;;;;;14.13;10.05;;;22.60;61.00;;;;;;5076211;28;20024;-53
2023/09/08 05:01:40;;;;;;;16.83;9.80;;;22.60;61.10;;;;;;5090678;28;20024;-55
2023/09/08 05:04:07;;;;;;;17.08;9.60;;;22.60;61.10;;;;;;5086061;28;20028;-48
2023/09/08 05:06:32;;;;;;;15.82;10.38;;;22.60;61.10;;;;;;5108885;28;20548;-51
2023/09/08 05:08:59;;;;;;;19.65;10.98;;;22.60;61.20;;;;;;5078701;28;20063;-51
2023/09/08 05:11:27;;;;;;;18.73;10.55;;;22.60;61.20;;;;;;5086470;28;20055;-51
2023/09/08 05:13:53;;;;;;;19.80;11.55;;;22.60;61.30;;;;;;5075995;28;20055;-51
2023/09/08 05:16:25;;;;;;;17.25;11.63;;;22.60;61.20;;;;;;5092220;28;20067;-55
2023/09/08 05:18:52;;;;;;;18.42;11.05;;;22.60;61.30;;;;;;5083332;28;20039;-55
2023/09/08 05:21:18;;;;;;;21.50;10.38;;;22.60;61.20;;;;;;5091259;28;20531;-50
2023/09/08 05:23:43;;;;;;;17.48;10.38;;;22.60;61.20;;;;;;5111270;28;20099;-51
2023/09/08 05:26:10;;;;;;;19.63;9.63;;;22.60;61.30;;;;;;5085543;28;20028;-52
2023/09/08 05:28:37;;;;;;;15.27;9.82;;;22.60;61.30;;;;;;5092994;28;20020;-50
2023/09/08 05:31:04;;;;;;;16.55;9.73;;;22.60;61.20;;;;;;5095237;28;20034;-50
2023/09/08 05:33:30;;;;;;;15.50;9.60;;;22.60;61.30;;;;;;5092772;28;20510;-48
2023/09/08 05:35:56;;;;;;;16.00;8.80;;;22.60;61.30;;;;;;5093190;28;20031;-48
2023/09/08 05:38:21;;;;;;;14.98;8.63;;;22.60;61.20;;;;;;5090744;28;20024;-50
2023/09/08 05:40:47;;;;;;;15.98;9.00;;;22.60;61.10;;;;;;5091188;28;20043;-49
2023/09/08 05:43:14;;;;;;;15.90;9.13;;;22.60;61.30;;;;;;5080787;28;20524;-50
2023/09/08 05:45:40;;;;;;;21.95;8.80;;;22.70;61.20;;;;;;5093295;28;20478;-48
2023/09/08 05:48:06;;;;;;;22.27;9.98;;;22.70;61.20;;;;;;5096962;28;20020;-52
2023/09/08 05:50:32;;;;;;;25.17;9.40;;;22.80;61.40;;;;;;5114652;28;20028;-48
2023/09/08 05:52:58;;;;;;;17.00;9.07;;;22.80;62.50;;;;;;5096452;28;20033;-49
2023/09/08 05:55:24;;;;;;;19.00;8.13;;;22.80;62.00;;;;;;5101280;28;20367;-48
2023/09/08 05:57:49;;;;;;;26.27;9.10;;;22.80;61.40;;;;;;5099811;28;20043;-51
2023/09/08 06:00:16;;;;;;;22.63;8.50;;;22.80;62.50;;;;;;5114366;28;20059;-49
2023/09/08 06:02:46;;;;;;;24.00;10.10;;;22.80;61.90;;;;;;5098008;27;20054;-49
2023/09/08 06:05:14;;;;;;;21.13;9.60;;;22.80;61.70;;;;;;5095908;27;20027;-48
2023/09/08 06:07:40;;;;;;;16.08;9.25;;;22.80;62.10;;;;;;5096591;28;20099;-47
2023/09/08 06:10:08;;;;;;;24.02;9.90;;;22.80;61.50;;;;;;5095916;28;20050;-48
2023/09/08 06:12:34;;;;;;;27.95;9.93;;;22.80;61.70;;;;;;5113958;28;20024;-56
2023/09/08 06:15:03;;;;;;;25.55;9.77;;;22.90;62.60;;;;;;5096332;28;20027;-59
2023/09/08 06:17:29;;;;;;;28.37;9.40;;;22.90;62.30;;;;;;5096298;28;20028;-55
2023/09/08 06:19:55;;;;;;;21.90;8.98;;;22.90;62.10;;;;;;5113679;28;20038;-57
2023/09/08 06:22:21;;;;;;;17.52;9.40;;;22.90;61.80;;;;;;5094590;28;20097;-58
2023/09/08 06:24:48;;;;;;;23.38;10.07;;;22.90;61.60;;;;;;5086330;28;20509;-56
2023/09/08 06:27:15;;;;;;;22.63;11.20;;;22.80;61.60;;;;;;5095623;28;20394;-59
2023/09/08 06:29:43;;;;;;;21.08;10.40;;;22.80;61.80;;;;;;5097312;28;20047;-56
2023/09/08 06:32:11;;;;;;;26.35;10.73;;;22.80;62.10;;;;;;5095566;28;20073;-54
2023/09/08 06:34:38;;;;;;;20.52;10.00;;;22.80;62.50;;;;;;5095828;28;20051;-59
2023/09/08 06:37:04;;;;;;;23.30;9.93;;;22.90;62.00;;;;;;5095088;28;20514;-59
2023/09/08 06:39:29;;;;;;;25.05;10.45;;;22.90;62.00;;;;;;5094302;28;20099;-55
2023/09/08 06:41:56;;;;;;;29.38;10.60;;;22.90;62.40;;;;;;5094647;28;20019;-58
2023/09/08 06:44:22;;;;;;;27.05;10.80;;;22.90;62.70;;;;;;5094522;28;20402;-56
2023/09/08 06:46:48;;;;;;;20.33;10.25;;;22.90;62.80;;;;;;5112850;28;20028;-59
2023/09/08 06:49:14;;;;;;;25.00;11.40;;;23.00;62.20;;;;;;5094268;28;20035;-56
2023/09/08 06:51:40;;;;;;;18.40;10.00;;;23.00;62.70;;;;;;5094987;28;20066;-54
2023/09/08 06:54:06;;;;;;;17.25;9.95;;;23.00;62.60;;;;;;5113618;28;20050;-56
2023/09/08 06:56:38;;;;;;;19.58;10.68;;;23.00;62.50;;;;;;5095813;28;20102;-54
2023/09/08 06:59:05;;;;;;;20.75;10.85;;;23.00;62.80;;;;;;5095118;28;20028;-55
2023/09/08 07:01:31;;;;;;;17.05;9.90;;;23.00;62.10;;;;;;5095368;28;20543;-55
2023/09/08 07:03:57;;;;;;;16.35;9.93;;;23.10;62.80;;;;;;5113511;28;20019;-56
2023/09/08 07:06:23;;;;;;;16.10;9.85;;;23.10;62.70;;;;;;5095341;28;20032;-55
2023/09/08 07:08:53;;;;;;;19.00;9.77;;;23.20;62.60;;;;;;5095105;28;20071;-53
2023/09/08 07:11:20;;;;;;;17.33;9.73;;;23.20;62.70;;;;;;5095358;28;20501;-54
2023/09/08 07:13:46;;;;;;;17.05;9.88;;;23.20;62.50;;;;;;5113271;28;20039;-54
2023/09/08 07:16:13;;;;;;;17.58;9.35;;;23.20;62.40;;;;;;5095144;28;20031;-54
2023/09/08 07:18:39;;;;;;;15.00;9.25;;;23.20;62.30;;;;;;5094782;28;20028;-52
2023/09/08 07:21:07;;;;;;;15.88;9.73;;;23.20;62.30;;;;;;5095063;28;20031;-52
2023/09/08 07:23:35;;;;;;;16.10;9.43;;;23.30;62.30;;;;;;5095003;28;20024;-54
2023/09/08 07:26:01;;;;;;;15.18;9.18;;;23.30;62.20;;;;;;5113168;28;20028;-55
2023/09/08 07:28:29;;;;;;;14.82;9.35;;;23.30;62.20;;;;;;5112809;28;20084;-56
2023/09/08 07:31:08;;;;;;;15.03;8.77;;;23.40;62.30;;;;;;5095109;28;20120;-57
2023/09/08 07:33:37;;;;;;;15.07;9.35;;;23.40;62.30;;;;;;5094686;28;20265;-57
2023/09/08 07:36:08;;;;;;;15.77;8.68;;;23.40;62.30;;;;;;5094931;28;20104;-59
2023/09/08 07:38:34;;;;;;;14.73;8.65;;;23.40;62.30;;;;;;5093860;28;20028;-58
2023/09/08 07:41:02;;;;;;;17.30;9.13;;;23.40;62.30;;;;;;5093842;28;20024;-59
2023/09/08 07:43:29;;;;;;;18.98;9.07;;;23.40;62.40;;;;;;5081490;28;20727;-58
2023/09/08 07:45:55;;;;;;;19.60;9.27;;;23.40;62.60;;;;;;5074611;28;20142;-58
2023/09/08 07:48:20;;;;;;;17.05;8.60;;;23.50;62.60;;;;;;5104748;28;20107;-58
2023/09/08 07:50:46;;;;;;;16.02;9.70;;;23.50;62.60;;;;;;5099651;28;20173;-57
2023/09/08 07:53:12;;;;;;;17.70;9.13;;;23.50;63.10;;;;;;5096999;28;20120;-60
2023/09/08 07:55:38;;;;;;;18.15;9.60;;;23.50;63.30;;;;;;5098419;28;20016;-60
2023/09/08 07:58:04;;;;;;;19.70;9.73;;;23.50;63.30;;;;;;5100919;28;20490;-58
2023/09/08 08:00:30;;;;;;;16.55;8.77;;;23.60;63.30;;;;;;5098952;28;20051;-56
2023/09/08 08:02:57;;;;;;;17.67;9.35;;;23.60;63.40;;;;;;5095687;28;20485;-58
2023/09/08 08:05:24;;;;;;;18.90;9.52;;;23.60;63.70;;;;;;5097933;28;20077;-59
2023/09/08 08:07:50;;;;;;;25.05;10.32;;;23.70;63.70;;;;;;5102325;28;20026;-58
2023/09/08 08:10:17;;;;;;;20.65;9.52;;;23.70;64.20;;;;;;5099603;28;20023;-59
2023/09/08 08:12:43;;;;;;;17.00;8.98;;;23.90;64.20;;;;;;5100017;28;20024;-56
2023/09/08 08:15:10;;;;;;;15.65;8.40;;;23.90;63.50;;;;;;5096382;28;20076;-58
2023/09/08 08:17:37;;;;;;;18.85;8.23;;;24.00;63.40;;;;;;5099755;28;20032;-58
2023/09/08 08:20:08;;;;;;;14.25;7.95;;;23.90;62.90;;;;;;5096249;28;20506;-57
2023/09/08 08:22:38;;;;;;;16.38;7.75;;;23.90;62.30;;;;;;5100258;28;20106;-58
2023/09/08 08:25:04;;;;;;;15.85;7.95;;;23.90;61.90;;;;;;5093620;28;20015;-59
2023/09/08 08:27:32;;;;;;;13.25;7.30;;;23.90;62.30;;;;;;5094237;28;20504;-56
2023/09/08 08:30:00;;;;;;;12.02;7.50;;;24.00;61.90;;;;;;5097162;28;20020;-59
2023/09/08 08:32:29;;;;;;;13.70;7.97;;;24.00;61.60;;;;;;5100576;28;20031;-58
2023/09/08 08:34:55;;;;;;;15.43;7.80;;;24.00;61.60;;;;;;5080147;28;20028;-56
2023/09/08 08:37:21;;;;;;;15.30;8.15;;;24.00;61.60;;;;;;5096966;28;20111;-56
2023/09/08 08:39:47;;;;;;;17.90;7.60;;;24.00;61.50;;;;;;5096652;28;20111;-56
2023/09/08 08:42:14;;;;;;;12.80;7.38;;;24.00;61.10;;;;;;5093683;28;20382;-55
2023/09/08 08:44:40;;;;;;;12.35;7.05;;;24.00;61.20;;;;;;5099850;28;20055;-58
2023/09/08 08:47:07;;;;;;;14.80;7.30;;;24.00;61.40;;;;;;5096922;28;20024;-52
2023/09/08 08:49:33;;;;;;;14.35;7.38;;;24.00;62.10;;;;;;5097454;28;20107;-55
2023/09/08 08:52:07;;;;;;;12.93;7.22;;;24.10;61.40;;;;;;5097000;28;20119;-58
2023/09/08 08:54:38;;;;;;;12.75;7.28;;;24.10;61.20;;;;;;5097486;28;20051;-59
2023/09/08 08:57:06;;;;;;;16.83;8.00;;;24.10;60.80;;;;;;5089773;28;20465;-57
2023/09/08 08:59:32;;;;;;;16.23;7.85;;;24.10;60.90;;;;;;5098023;28;20055;-58
2023/09/08 09:01:59;;;;;;;13.43;7.47;;;24.20;60.40;;;;;;5097576;28;20024;-57
2023/09/08 09:04:25;;;;;;;15.30;7.22;;;24.20;60.30;;;;;;5095582;28;20020;-58
2023/09/08 09:06:53;;;;;;;22.83;7.88;;;24.20;61.00;;;;;;5098127;28;20110;-52
2023/09/08 09:09:20;;;;;;;18.38;8.00;;;24.20;60.40;;;;;;5092265;28;20035;-57
2023/09/08 09:11:46;;;;;;;18.73;7.72;;;24.10;60.10;;;;;;5100238;28;20498;-57
2023/09/08 09:14:12;;;;;;;20.00;7.43;;;24.10;59.90;;;;;;5097258;28;20028;-57
2023/09/08 09:16:42;;;;;;;15.68;7.47;;;24.20;60.00;;;;;;5100319;28;20031;-55
2023/09/08 09:19:08;;;;;;;16.40;6.93;;;24.20;60.10;;;;;;5096151;28;20035;-56
2023/09/08 09:21:47;;;;;;;13.05;7.10;;;24.20;60.10;;;;;;5098526;28;20491;-55
2023/09/08 09:24:36;;;;;;;15.38;7.22;;;24.20;60.00;;;;;;5099892;28;20024;-58
2023/09/08 09:27:06;;;;;;;16.95;7.53;;;24.20;60.50;;;;;;5095653;28;20081;-56
2023/09/08 09:29:33;;;;;;;16.40;7.93;;;24.30;60.00;;;;;;5099863;28;20036;-55
2023/09/08 09:32:07;;;;;;;14.80;7.55;;;24.20;59.80;;;;;;5104458;28;20027;-55
2023/09/08 09:34:34;;;;;;;10.57;7.00;;;24.20;59.80;;;;;;5099598;28;20490;-55
2023/09/08 09:37:00;;;;;;;16.33;7.82;;;24.30;60.00;;;;;;5102986;28;20057;-57
2023/09/08 09:39:27;;;;;;;18.70;7.97;;;24.20;59.70;;;;;;5103200;28;20035;-54
2023/09/08 09:41:57;;;;;;;13.43;8.20;;;24.20;59.70;;;;;;5102414;28;20028;-56
2023/09/08 09:44:24;;;;;;;10.88;7.07;;;24.20;59.70;;;;;;5103545;28;20395;-52
2023/09/08 09:46:53;;;;;;;13.55;7.28;;;24.30;59.80;;;;;;5102929;28;20107;-57
2023/09/08 09:49:19;;;;;;;15.70;8.05;;;24.20;59.90;;;;;;5103339;28;20517;-56
2023/09/08 09:51:47;;;;;;;15.45;8.20;;;24.20;59.90;;;;;;5101365;28;20032;-55
2023/09/08 09:54:14;;;;;;;15.88;7.28;;;24.20;60.00;;;;;;5104419;28;20384;-56
2023/09/08 09:56:40;;;;;;;14.50;7.68;;;24.20;59.90;;;;;;5102673;28;20107;-57
2023/09/08 09:59:12;;;;;;;12.98;7.25;;;24.20;60.30;;;;;;5081914;28;20051;-58
2023/09/08 10:01:39;;;;;;;13.27;7.75;;;24.20;60.10;;;;;;5103452;28;20051;-55
2023/09/08 10:04:06;;;;;;;15.60;8.63;;;24.20;60.00;;;;;;5081357;28;20028;-58
2023/09/08 10:06:33;;;;;;;15.88;8.70;;;24.20;60.00;;;;;;5099935;28;20384;-55
2023/09/08 10:09:01;;;;;;;12.60;7.60;;;24.20;60.00;;;;;;5104669;28;20036;-58
2023/09/08 10:11:30;;;;;;;15.50;8.38;;;24.20;60.00;;;;;;5083880;28;20036;-56
2023/09/08 10:13:59;;;;;;;16.45;7.65;;;24.20;59.90;;;;;;5101013;28;20455;-55
2023/09/08 10:16:30;;;;;;;14.18;7.70;;;24.30;59.90;;;;;;5100486;28;20027;-58
2023/09/08 10:18:59;;;;;;;13.73;7.60;;;24.20;59.70;;;;;;5104643;28;20164;-58
2023/09/08 10:21:29;;;;;;;14.43;8.70;;;24.20;59.60;;;;;;5099994;28;20028;-58
2023/09/08 10:24:05;;;;;;;17.10;7.72;;;24.30;59.60;;;;;;5104963;28;20019;-58
2023/09/08 10:26:34;;;;;;;14.93;7.57;;;24.30;59.50;;;;;;5100162;28;20024;-58
2023/09/08 10:29:01;;;;;;;13.52;7.50;;;24.30;59.00;;;;;;5103830;28;20031;-57
2023/09/08 10:31:28;;;;;;;12.02;6.93;;;24.30;59.10;;;;;;5099690;28;20031;-58
2023/09/08 10:33:57;;;;;;;15.43;7.30;;;24.30;59.10;;;;;;5103799;28;20498;-58
2023/09/08 10:36:24;;;;;;;13.15;7.50;;;24.30;59.20;;;;;;5099856;28;20548;-56
2023/09/08 10:38:51;;;;;;;11.40;7.00;;;24.30;59.10;;;;;;5103050;28;20024;-57
2023/09/08 10:41:17;;;;;;;11.00;6.75;;;24.30;59.20;;;;;;5099829;28;20406;-58
2023/09/08 10:43:44;;;;;;;12.90;7.10;;;24.30;59.00;;;;;;5102874;28;20033;-58
2023/09/08 10:46:11;;;;;;;11.98;6.40;;;24.30;58.90;;;;;;5099866;28;20128;-58
2023/09/08 10:48:43;;;;;;;12.85;7.05;;;24.30;58.80;;;;;;5102392;28;20047;-58
2023/09/08 10:51:17;;;;;;;12.20;6.82;;;24.30;58.70;;;;;;5095729;28;20019;-58
2023/09/08 10:53:47;;;;;;;14.48;6.97;;;24.30;58.40;;;;;;5101857;28;20032;-58
2023/09/08 10:56:13;;;;;;;11.70;7.30;;;24.30;58.40;;;;;;5099615;28;20031;-56
2023/09/08 10:58:42;;;;;;;16.13;7.80;;;24.30;58.40;;;;;;5101562;28;20490;-53
2023/09/08 11:01:15;;;;;;;15.05;7.50;;;24.30;58.30;;;;;;5099381;28;20040;-55
2023/09/08 11:03:40;;;;;;;14.20;7.38;;;24.30;58.40;;;;;;5101695;28;20114;-55
2023/09/08 11:06:07;;;;;;;12.95;6.80;;;24.30;58.40;;;;;;5081190;28;20110;-55
2023/09/08 11:08:34;;;;;;;13.05;7.10;;;24.30;58.50;;;;;;5100242;28;20016;-57
2023/09/08 11:11:01;;;;;;;12.90;6.45;;;24.30;58.30;;;;;;5099289;28;20028;-56
2023/09/08 11:13:28;;;;;;;13.60;7.05;;;24.30;58.20;;;;;;5099387;28;20495;-55
2023/09/08 11:15:54;;;;;;;11.70;6.80;;;24.30;58.00;;;;;;5100285;28;20411;-51
2023/09/08 11:18:30;;;;;;;19.65;6.90;;;24.40;58.00;;;;;;5099135;28;20103;-53
2023/09/08 11:20:57;;;;;;;12.35;6.55;;;24.40;57.90;;;;;;5098766;28;20020;-54
2023/09/08 11:23:24;;;;;;;14.20;7.30;;;24.40;57.90;;;;;;5099525;28;20050;-55
2023/09/08 11:25:51;;;;;;;17.25;7.22;;;24.40;57.90;;;;;;5100046;28;20024;-55
2023/09/08 11:28:17;;;;;;;13.60;7.55;;;24.40;57.90;;;;;;5099081;28;20052;-54
2023/09/08 11:30:46;;;;;;;11.05;6.90;;;24.50;57.90;;;;;;5099401;28;20546;-55
2023/09/08 11:33:24;;;;;;;11.10;7.05;;;24.50;57.80;;;;;;5098517;28;20081;-54
2023/09/08 11:35:54;;;;;;;14.45;7.28;;;24.50;57.60;;;;;;5099313;28;20031;-58
2023/09/08 11:38:30;;;;;;;12.15;7.35;;;24.50;57.60;;;;;;5098719;28;20020;-52
2023/09/08 11:40:57;;;;;;;12.02;7.40;;;24.50;57.30;;;;;;5098868;28;20028;-54
2023/09/08 11:43:23;;;;;;;12.88;7.57;;;24.50;57.40;;;;;;5097969;28;20479;-54
2023/09/08 11:45:49;;;;;;;12.85;7.15;;;24.50;57.50;;;;;;5098467;28;20032;-57
2023/09/08 11:48:16;;;;;;;12.88;6.88;;;24.50;57.40;;;;;;5098690;28;20065;-53
2023/09/08 11:50:42;;;;;;;11.98;6.35;;;24.50;57.20;;;;;;5098653;28;20023;-58
2023/09/08 11:53:08;;;;;;;10.88;6.43;;;24.50;57.10;;;;;;5101594;28;20031;-56
2023/09/08 11:55:36;;;;;;;10.52;6.22;;;24.40;56.80;;;;;;5101943;28;20075;-51
2023/09/08 11:58:03;;;;;;;14.75;6.22;;;24.40;56.80;;;;;;5101519;28;20027;-55
2023/09/08 12:00:29;;;;;;;14.05;6.15;;;24.50;57.20;;;;;;5101992;28;20035;-54
2023/09/08 12:02:56;;;;;;;12.50;6.55;;;24.40;56.70;;;;;;5100422;28;20024;-53
2023/09/08 12:05:23;;;;;;;15.43;6.78;;;24.40;56.60;;;;;;5103073;28;20107;-51
2023/09/08 12:07:54;;;;;;;10.75;6.38;;;24.40;56.70;;;;;;5099272;28;20088;-52
2023/09/08 12:10:21;;;;;;;11.85;6.80;;;24.40;56.90;;;;;;5102802;28;20016;-51
2023/09/08 12:12:58;;;;;;;13.98;7.32;;;24.40;56.70;;;;;;5099138;28;20471;-54
2023/09/08 12:15:43;;;;;;;10.55;6.57;;;24.40;56.20;;;;;;5102096;28;20034;-53
2023/09/08 12:18:12;;;;;;;14.45;7.10;;;24.40;55.80;;;;;;5111594;22;20027;-53
2023/09/08 12:20:39;;;;;;;16.30;7.22;;;24.40;56.10;;;;;;5084311;28;20036;-50
2023/09/08 12:23:14;;;;;;;11.25;7.10;;;24.50;56.50;;;;;;5097547;28;20020;-55
2023/09/08 12:25:53;;;;;;;17.58;7.22;;;24.50;58.10;;;;;;5071227;28;20433;-49
2023/09/08 12:28:20;;;;;;;12.32;8.32;;;24.60;57.20;;;;;;5089168;28;20024;-53
2023/09/08 12:30:46;;;;;;;16.38;7.25;;;24.70;59.00;;;;;;5072136;28;20511;-54
2023/09/08 12:33:14;;;;;;;13.10;7.03;;;24.60;58.30;;;;;;5081179;28;20028;-54
2023/09/08 12:35:44;;;;;;;15.13;6.25;;;24.60;57.30;;;;;;5072476;28;20025;-57